Time;durP1;ratioP1;P1;durP2;ratioP2;P2;SDS_P1;SDS_P2;PMS_P1;PMS_P2;Temp;Humidity;BMP_temperature;BMP_pressure;BME280_temperature;BME280_humidity;BME280_pressure;Samples;Min_cycle;Max_cycle;Signal;HPM_P1;HPM_P2
2022/01/25 00:24:52;;;;;;;20.63;10.90;;;7.30;50.60;;;;;;5075244;28;20581;-85
2022/01/25 00:27:39;;;;;;;22.77;9.57;;;7.30;50.90;;;;;;5074860;28;20471;-85
2022/01/25 00:30:28;;;;;;;14.57;9.87;;;7.20;51.30;;;;;;5065132;28;20522;-85
2022/01/25 00:32:55;;;;;;;18.47;8.90;;;7.20;51.20;;;;;;5077468;28;20536;-85
2022/01/25 00:35:23;;;;;;;19.00;9.63;;;7.20;51.80;;;;;;5074435;28;20452;-85
2022/01/25 00:37:51;;;;;;;21.13;10.77;;;6.90;52.50;;;;;;5072212;28;20448;-85
2022/01/25 00:40:18;;;;;;;27.03;10.20;;;7.00;52.20;;;;;;5078773;28;20456;-85
2022/01/25 00:42:45;;;;;;;18.20;8.73;;;7.00;52.10;;;;;;5039229;28;21436;-85
2022/01/25 00:45:15;;;;;;;16.67;9.57;;;7.00;51.90;;;;;;5076731;28;20475;-85
2022/01/25 00:47:47;;;;;;;13.23;7.93;;;7.10;52.00;;;;;;5075363;28;20523;-85
2022/01/25 00:50:15;;;;;;;18.07;9.10;;;7.10;51.70;;;;;;5071497;28;20944;-85
2022/01/25 00:55:32;;;;;;;19.93;9.30;;;7.00;50.90;;;;;;5063707;28;20449;-85
2022/01/25 00:57:59;;;;;;;21.60;10.30;;;6.90;50.80;;;;;;5072527;28;20578;-85
2022/01/25 01:00:26;;;;;;;18.17;10.37;;;6.90;51.40;;;;;;5073642;28;21054;-85
2022/01/25 01:02:54;;;;;;;22.27;9.97;;;6.80;51.60;;;;;;5072795;28;20459;-85
2022/01/25 01:05:22;;;;;;;18.10;9.60;;;6.70;51.90;;;;;;5071329;28;20978;-85
2022/01/25 01:07:49;;;;;;;22.63;9.83;;;6.60;52.00;;;;;;5075065;28;20469;-85
2022/01/25 01:10:20;;;;;;;23.50;11.90;;;6.50;52.20;;;;;;5071258;28;20489;-85
2022/01/25 01:13:21;;;;;;;26.93;13.37;;;6.40;52.40;;;;;;5072181;28;20875;-85
2022/01/25 01:15:55;;;;;;;29.37;10.17;;;6.50;52.20;;;;;;5074946;28;20504;-86
2022/01/25 01:29:42;;;;;;;20.17;9.47;;;6.60;51.40;;;;;;5072578;28;20444;-85
2022/01/25 01:32:42;;;;;;;19.27;8.27;;;6.60;51.20;;;;;;5074210;28;20547;-86
2022/01/25 01:35:29;;;;;;;20.50;9.07;;;6.70;51.10;;;;;;5075551;28;21119;-82
2022/01/25 01:38:13;;;;;;;18.10;8.70;;;6.60;51.30;;;;;;5064914;28;20459;-85
2022/01/25 01:41:12;;;;;;;17.10;7.73;;;6.60;51.20;;;;;;5075571;28;20459;-85
2022/01/25 01:43:40;;;;;;;17.23;8.03;;;6.60;51.00;;;;;;5074506;28;20494;-86
2022/01/25 01:46:28;;;;;;;15.90;9.17;;;6.60;51.60;;;;;;5070802;28;20461;-86
2022/01/25 01:48:58;;;;;;;19.13;9.10;;;6.60;51.20;;;;;;5070779;28;20483;-85
2022/01/25 01:51:29;;;;;;;20.47;7.20;;;6.60;51.40;;;;;;5073461;28;20552;-86
2022/01/25 01:53:58;;;;;;;18.90;9.30;;;6.60;51.00;;;;;;5072724;28;20831;-85
2022/01/25 01:56:25;;;;;;;19.70;9.20;;;6.50;51.00;;;;;;5073075;28;21357;-86
2022/01/25 01:58:54;;;;;;;16.67;9.03;;;6.50;51.10;;;;;;5067477;28;20460;-85
2022/01/25 02:01:26;;;;;;;17.87;9.50;;;6.40;51.00;;;;;;5076441;28;20447;-86
2022/01/25 02:03:55;;;;;;;13.03;7.50;;;6.40;51.00;;;;;;5071753;28;21002;-85
2022/01/25 02:06:23;;;;;;;18.80;10.20;;;6.40;50.70;;;;;;5072393;28;20452;-85
2022/01/25 02:08:50;;;;;;;16.80;9.33;;;6.40;50.80;;;;;;5073606;28;20479;-86
2022/01/25 02:11:17;;;;;;;25.83;10.10;;;6.40;51.00;;;;;;5072501;28;20449;-85
2022/01/25 02:13:46;;;;;;;18.60;10.60;;;6.40;51.00;;;;;;5072419;28;20570;-85
2022/01/25 02:16:33;;;;;;;19.73;10.30;;;6.40;50.80;;;;;;5073913;28;20471;-85
2022/01/25 02:24:33;;;;;;;16.67;9.77;;;6.30;51.10;;;;;;5073095;28;20987;-86
2022/01/25 02:27:01;;;;;;;17.30;10.10;;;6.30;50.40;;;;;;5074005;28;20986;-84
2022/01/25 02:29:29;;;;;;;19.43;9.50;;;6.30;50.50;;;;;;5072523;28;20489;-86
2022/01/25 02:31:56;;;;;;;20.40;10.40;;;6.30;50.60;;;;;;5075041;28;20460;-86
2022/01/25 02:34:24;;;;;;;20.60;9.73;;;6.30;50.80;;;;;;5071832;28;20467;-86
2022/01/25 02:36:57;;;;;;;16.37;9.23;;;6.20;51.00;;;;;;5072031;28;20818;-86
2022/01/25 02:39:24;;;;;;;13.50;7.70;;;6.20;50.80;;;;;;5076174;28;20550;-85
2022/01/25 02:41:52;;;;;;;18.90;9.33;;;6.20;50.70;;;;;;5073293;28;20563;-86
2022/01/25 02:44:24;;;;;;;18.83;9.53;;;6.20;50.70;;;;;;5037868;28;20557;-85
2022/01/25 02:49:36;;;;;;;23.50;8.90;;;6.30;51.00;;;;;;5070577;28;20766;-85
2022/01/25 02:52:06;;;;;;;29.30;11.13;;;6.30;51.10;;;;;;5072092;28;20896;-85
2022/01/25 02:54:35;;;;;;;24.60;9.53;;;6.20;51.80;;;;;;5073016;28;21177;-85
2022/01/25 02:57:02;;;;;;;24.67;8.90;;;6.30;52.40;;;;;;5071064;28;20456;-84
2022/01/25 02:59:29;;;;;;;19.20;9.83;;;6.20;53.10;;;;;;5079507;28;20765;-85
2022/01/25 03:01:56;;;;;;;21.10;12.60;;;6.20;53.50;;;;;;5081698;28;21114;-86
2022/01/25 03:04:24;;;;;;;32.87;13.33;;;6.30;53.50;;;;;;5080777;28;20470;-85
2022/01/25 03:06:51;;;;;;;29.03;11.00;;;6.20;53.30;;;;;;5075734;28;20929;-86
2022/01/25 03:09:20;;;;;;;43.37;11.30;;;6.10;53.80;;;;;;5078697;28;20486;-85
2022/01/25 03:12:09;;;;;;;23.57;9.97;;;6.10;54.20;;;;;;5075573;28;20455;-85
2022/01/25 03:15:11;;;;;;;31.70;10.67;;;6.10;54.10;;;;;;5077196;28;21115;-85
2022/01/25 03:17:45;;;;;;;49.73;9.47;;;6.10;54.40;;;;;;5080976;28;20463;-85
2022/01/25 03:20:19;;;;;;;19.80;9.93;;;6.00;55.20;;;;;;5078604;28;20487;-85
2022/01/25 03:22:57;;;;;;;76.70;13.97;;;6.00;55.30;;;;;;5075078;28;20460;-85
2022/01/25 03:25:27;;;;;;;28.60;12.03;;;5.80;55.40;;;;;;5076689;28;20470;-86
2022/01/25 03:27:55;;;;;;;72.33;14.00;;;5.30;57.60;;;;;;5074571;28;20923;-85
2022/01/25 03:30:22;;;;;;;25.73;11.67;;;5.10;57.90;;;;;;5075028;28;21421;-85
2022/01/25 03:32:49;;;;;;;25.07;11.60;;;5.10;58.20;;;;;;5075582;28;20995;-85
2022/01/25 03:35:16;;;;;;;54.20;13.70;;;5.10;58.40;;;;;;5078771;28;21045;-85
2022/01/25 03:37:44;;;;;;;87.80;13.23;;;5.20;58.20;;;;;;5074485;28;20458;-86
2022/01/25 03:40:12;;;;;;;27.10;10.63;;;5.20;57.80;;;;;;5079765;28;20550;-85
2022/01/25 03:42:41;;;;;;;25.17;10.97;;;5.20;57.80;;;;;;5076323;28;20453;-85
2022/01/25 03:45:17;;;;;;;21.83;9.90;;;5.40;57.60;;;;;;5078120;28;20584;-85
2022/01/25 03:47:57;;;;;;;34.63;11.63;;;5.30;57.50;;;;;;5073058;28;20528;-85
2022/01/25 03:50:23;;;;;;;47.27;14.97;;;5.40;57.70;;;;;;5076470;28;20703;-84
2022/01/25 03:52:50;;;;;;;68.73;13.87;;;5.40;58.00;;;;;;5076912;28;20447;-86
2022/01/25 03:55:17;;;;;;;68.50;14.27;;;5.40;58.10;;;;;;5077622;28;20559;-85
2022/01/25 03:57:45;;;;;;;40.63;13.30;;;5.50;58.00;;;;;;5077319;28;20961;-85
2022/01/25 04:00:14;;;;;;;47.40;11.57;;;5.70;57.50;;;;;;5060612;28;20876;-85
2022/01/25 04:02:49;;;;;;;70.10;11.13;;;5.60;56.60;;;;;;5058224;28;20431;-85
2022/01/25 04:05:21;;;;;;;41.37;13.50;;;5.40;57.10;;;;;;5077589;28;20489;-85
2022/01/25 04:07:50;;;;;;;88.30;14.10;;;5.10;58.30;;;;;;5074917;28;20800;-85
2022/01/25 04:10:18;;;;;;;51.30;13.90;;;5.10;58.40;;;;;;5080884;28;20548;-85
2022/01/25 04:12:47;;;;;;;19.60;9.97;;;5.00;58.40;;;;;;5076801;28;20509;-85
2022/01/25 04:15:15;;;;;;;23.80;10.10;;;5.00;58.80;;;;;;5058845;28;20480;-86
2022/01/25 04:17:47;;;;;;;25.50;11.30;;;5.30;58.30;;;;;;5073714;28;21108;-85
2022/01/25 04:20:18;;;;;;;21.67;11.03;;;5.50;57.70;;;;;;5076871;28;20840;-85
2022/01/25 04:25:30;;;;;;;57.97;9.27;;;5.80;57.30;;;;;;5072793;28;20958;-85
2022/01/25 04:27:58;;;;;;;21.57;9.67;;;5.80;55.70;;;;;;5073934;28;20468;-86
2022/01/25 04:30:25;;;;;;;23.40;11.80;;;5.20;56.60;;;;;;5077324;28;20463;-85
2022/01/25 04:32:59;;;;;;;74.40;11.73;;;4.90;57.50;;;;;;5069936;28;20464;-85
2022/01/25 04:35:30;;;;;;;46.73;10.20;;;4.50;58.00;;;;;;5074330;28;20509;-84
2022/01/25 04:49:19;;;;;;;14.80;9.57;;;4.40;58.20;;;;;;5010108;28;20513;-85
2022/01/25 04:54:37;;;;;;;24.00;10.50;;;4.80;57.50;;;;;;5073361;28;20850;-84
2022/01/25 04:57:17;;;;;;;21.27;11.70;;;4.50;58.40;;;;;;5074321;28;20543;-85
2022/01/25 04:59:51;;;;;;;19.87;10.30;;;4.60;58.50;;;;;;5074264;28;20646;-84
2022/01/25 05:02:28;;;;;;;24.50;10.83;;;4.70;58.00;;;;;;5075697;28;20467;-86
2022/01/25 05:05:00;;;;;;;22.17;11.07;;;4.80;57.80;;;;;;5076053;28;20718;-84
2022/01/25 05:07:34;;;;;;;35.47;10.60;;;4.90;57.80;;;;;;5074008;28;20468;-86
2022/01/25 05:10:03;;;;;;;17.93;8.73;;;4.80;57.80;;;;;;5073200;28;20476;-85
2022/01/25 05:12:38;;;;;;;39.70;13.30;;;4.70;58.00;;;;;;5074725;28;20504;-85
2022/01/25 05:15:20;;;;;;;33.40;11.07;;;4.90;58.10;;;;;;5076642;28;20472;-86
2022/01/25 05:18:00;;;;;;;22.90;10.93;;;5.30;57.40;;;;;;5074553;28;20456;-85
2022/01/25 05:23:11;;;;;;;60.23;11.20;;;5.50;56.60;;;;;;5073786;28;20452;-85
2022/01/25 05:25:38;;;;;;;24.53;10.13;;;5.00;57.10;;;;;;5076138;28;20509;-85
2022/01/25 05:28:05;;;;;;;28.87;10.80;;;5.00;57.70;;;;;;5072424;28;20546;-83
2022/01/25 05:30:34;;;;;;;90.93;12.63;;;5.00;57.60;;;;;;5077713;28;20451;-85
2022/01/25 05:33:01;;;;;;;38.10;10.20;;;4.90;57.40;;;;;;5074737;28;20550;-85
2022/01/25 05:35:28;;;;;;;18.77;8.87;;;4.90;57.50;;;;;;5075264;28;20461;-85
2022/01/25 05:37:55;;;;;;;32.30;9.37;;;4.70;57.20;;;;;;5073114;28;20474;-84
2022/01/25 05:40:39;;;;;;;73.83;10.13;;;4.30;58.40;;;;;;5074175;28;20488;-84
2022/01/25 05:45:59;;;;;;;33.63;9.47;;;4.00;60.20;;;;;;5070926;28;20713;-85
2022/01/25 05:48:28;;;;;;;55.77;13.17;;;4.40;59.90;;;;;;5077879;28;20572;-86
2022/01/25 05:50:56;;;;;;;44.43;11.07;;;4.60;59.10;;;;;;5073734;28;20823;-86
2022/01/25 05:53:23;;;;;;;22.83;10.40;;;4.80;58.40;;;;;;5074031;28;20471;-85
2022/01/25 05:55:50;;;;;;;21.03;9.40;;;4.90;57.90;;;;;;5071732;28;20826;-85
2022/01/25 05:58:17;;;;;;;32.07;8.77;;;5.00;57.40;;;;;;5073431;28;20797;-86
2022/01/25 06:00:44;;;;;;;28.20;12.40;;;4.90;57.20;;;;;;5071297;28;20652;-86
2022/01/25 06:03:13;;;;;;;20.23;9.60;;;4.90;57.40;;;;;;5074222;28;21095;-86
2022/01/25 06:05:40;;;;;;;20.53;10.03;;;5.00;57.30;;;;;;5074723;28;20961;-86
2022/01/25 06:08:07;;;;;;;30.90;9.80;;;4.90;57.30;;;;;;5074227;28;20622;-85
2022/01/25 06:10:35;;;;;;;18.63;9.57;;;5.00;56.90;;;;;;5076685;28;20467;-86
2022/01/25 06:13:02;;;;;;;18.37;7.60;;;5.10;56.70;;;;;;5071260;28;20448;-86
2022/01/25 06:15:29;;;;;;;28.17;12.10;;;5.10;56.40;;;;;;5058272;28;20449;-85
2022/01/25 06:17:56;;;;;;;23.27;10.70;;;5.10;55.80;;;;;;5071269;28;20198;-85
2022/01/25 06:20:24;;;;;;;31.13;12.80;;;4.70;56.30;;;;;;5072180;28;20817;-84
2022/01/25 06:22:51;;;;;;;20.43;10.77;;;4.70;56.60;;;;;;5066827;28;20576;-84
2022/01/25 06:25:19;;;;;;;19.43;9.70;;;4.80;56.50;;;;;;5067737;28;20567;-84
2022/01/25 06:27:46;;;;;;;15.50;9.97;;;4.80;56.30;;;;;;5071473;28;21027;-84
2022/01/25 06:30:17;;;;;;;30.17;9.70;;;4.90;56.40;;;;;;5068148;28;20483;-84
2022/01/25 06:32:45;;;;;;;24.70;11.30;;;4.90;56.10;;;;;;5069075;28;20456;-85
2022/01/25 06:35:13;;;;;;;24.90;10.80;;;5.00;55.90;;;;;;5068102;28;20541;-85
2022/01/25 06:37:42;;;;;;;91.57;15.00;;;4.90;56.10;;;;;;5049082;28;20456;-84
2022/01/25 06:40:09;;;;;;;29.57;9.80;;;4.60;56.70;;;;;;5047735;28;20458;-82
2022/01/25 06:42:36;;;;;;;24.23;11.47;;;4.50;57.30;;;;;;5069402;28;21287;-82
2022/01/25 06:45:10;;;;;;;28.90;10.87;;;4.70;57.40;;;;;;5068227;28;20479;-81
2022/01/25 06:47:37;;;;;;;28.80;10.20;;;4.60;57.50;;;;;;5056118;28;20516;-84
2022/01/25 06:50:05;;;;;;;24.90;10.27;;;4.50;57.90;;;;;;5069703;28;20482;-84
2022/01/25 06:52:36;;;;;;;22.10;9.80;;;4.70;57.70;;;;;;5068457;28;20470;-84
2022/01/25 06:55:06;;;;;;;24.30;12.03;;;4.90;57.50;;;;;;5069020;28;20491;-84
2022/01/25 06:57:33;;;;;;;26.97;10.97;;;4.90;57.20;;;;;;5065834;28;20460;-84
2022/01/25 07:00:00;;;;;;;19.17;8.93;;;4.90;56.90;;;;;;5069471;28;20452;-84
2022/01/25 07:02:28;;;;;;;21.17;9.43;;;4.60;57.50;;;;;;5069120;28;20466;-84
2022/01/25 07:04:55;;;;;;;25.20;10.20;;;4.60;57.50;;;;;;5070256;28;20468;-84
2022/01/25 07:07:22;;;;;;;30.40;9.90;;;4.60;58.00;;;;;;5067058;28;20717;-85
2022/01/25 07:09:49;;;;;;;35.27;8.13;;;4.50;58.00;;;;;;5053396;28;20475;-84
2022/01/25 07:12:18;;;;;;;24.40;9.60;;;4.20;57.70;;;;;;5071672;28;20463;-85
2022/01/25 07:14:45;;;;;;;15.03;9.37;;;3.70;58.50;;;;;;5068640;28;20824;-86
2022/01/25 07:17:12;;;;;;;18.20;7.57;;;3.70;59.80;;;;;;5070314;28;20458;-85
2022/01/25 07:19:39;;;;;;;21.97;8.23;;;3.80;59.10;;;;;;5068204;28;20467;-85
2022/01/25 07:22:06;;;;;;;17.83;8.53;;;3.80;59.70;;;;;;5066923;28;20911;-85
2022/01/25 07:24:33;;;;;;;16.67;8.87;;;4.10;59.40;;;;;;5067702;28;20778;-85
2022/01/25 07:27:00;;;;;;;13.03;7.43;;;4.00;58.20;;;;;;5067568;28;20445;-84
2022/01/25 07:29:29;;;;;;;18.93;8.60;;;4.30;58.50;;;;;;5068762;28;20490;-85
2022/01/25 07:31:56;;;;;;;17.73;6.87;;;4.40;58.30;;;;;;5070744;28;20463;-86
2022/01/25 07:34:24;;;;;;;17.70;9.00;;;4.60;57.70;;;;;;5069538;28;20991;-86
2022/01/25 07:36:51;;;;;;;16.53;8.30;;;4.90;57.30;;;;;;5052463;28;20460;-86
2022/01/25 07:39:18;;;;;;;15.60;8.27;;;5.00;56.80;;;;;;5068351;28;20452;-86
2022/01/25 07:41:46;;;;;;;17.33;7.97;;;5.20;56.50;;;;;;5048624;28;20458;-85
2022/01/25 07:44:14;;;;;;;20.40;10.07;;;4.90;56.70;;;;;;5074793;28;20475;-85
2022/01/25 07:46:42;;;;;;;20.30;10.20;;;5.20;56.80;;;;;;5072709;28;20541;-85
2022/01/25 07:49:09;;;;;;;19.60;10.20;;;5.30;56.40;;;;;;5071826;28;20567;-84
2022/01/25 07:51:36;;;;;;;22.33;9.60;;;5.30;56.30;;;;;;5063653;28;20533;-86
2022/01/25 07:54:03;;;;;;;25.40;12.43;;;5.30;56.70;;;;;;5074415;28;20479;-85
2022/01/25 07:56:31;;;;;;;20.90;10.30;;;5.30;56.50;;;;;;5075554;28;20516;-85
2022/01/25 07:58:58;;;;;;;20.13;9.43;;;5.20;56.40;;;;;;5070051;28;20451;-86
2022/01/25 08:01:26;;;;;;;24.23;12.67;;;5.30;56.40;;;;;;5074061;28;20960;-85
2022/01/25 08:03:55;;;;;;;30.50;15.73;;;5.10;56.30;;;;;;5077787;28;20480;-86
2022/01/25 08:06:22;;;;;;;22.97;11.20;;;5.10;57.00;;;;;;5078262;28;20563;-85
2022/01/25 08:08:49;;;;;;;20.20;11.07;;;5.00;57.00;;;;;;5074256;28;20576;-86
2022/01/25 08:11:16;;;;;;;20.57;11.23;;;5.20;57.90;;;;;;5073943;28;21138;-84
2022/01/25 08:13:47;;;;;;;23.40;11.33;;;5.10;56.70;;;;;;5074270;28;20479;-86
2022/01/25 08:16:15;;;;;;;21.90;11.10;;;5.20;56.90;;;;;;5077607;28;20460;-85
2022/01/25 08:18:42;;;;;;;19.47;10.97;;;5.10;57.00;;;;;;5075408;28;20471;-86
2022/01/25 08:21:11;;;;;;;26.07;10.57;;;5.10;57.40;;;;;;5073862;28;20462;-83
2022/01/25 08:23:38;;;;;;;26.97;12.50;;;5.30;57.00;;;;;;5075234;28;20559;-86
2022/01/25 08:26:05;;;;;;;21.67;11.70;;;5.00;57.30;;;;;;5071061;28;20479;-86
2022/01/25 08:28:32;;;;;;;21.63;12.97;;;4.80;57.60;;;;;;5070217;28;20542;-86
2022/01/25 08:30:59;;;;;;;21.97;11.00;;;5.00;57.70;;;;;;5075424;28;20477;-86
2022/01/25 08:33:26;;;;;;;26.97;14.00;;;5.10;57.60;;;;;;5073360;28;20997;-85
2022/01/25 08:35:54;;;;;;;22.73;10.07;;;5.10;57.40;;;;;;5077634;28;20546;-86
2022/01/25 08:38:22;;;;;;;26.93;13.30;;;4.90;57.60;;;;;;5073649;28;20455;-85
2022/01/25 08:40:49;;;;;;;28.27;12.53;;;5.00;58.10;;;;;;5055737;28;20452;-86
2022/01/25 08:43:16;;;;;;;21.20;10.87;;;5.10;57.80;;;;;;5074738;28;20488;-85
2022/01/25 08:45:43;;;;;;;25.67;14.20;;;5.20;58.00;;;;;;5057482;28;20454;-84
2022/01/25 08:48:10;;;;;;;23.60;12.07;;;5.40;57.70;;;;;;5072524;28;20476;-85
2022/01/25 08:50:37;;;;;;;17.73;9.97;;;5.50;57.30;;;;;;5073503;28;20484;-85
2022/01/25 08:53:04;;;;;;;20.73;12.47;;;5.50;57.80;;;;;;5056063;28;21086;-86
2022/01/25 08:55:32;;;;;;;21.70;10.67;;;5.50;57.30;;;;;;5075842;28;20965;-85
2022/01/25 08:57:59;;;;;;;28.50;12.80;;;5.60;57.60;;;;;;5074499;28;20552;-85
2022/01/25 09:00:26;;;;;;;22.90;10.73;;;5.70;57.20;;;;;;5074436;28;20552;-85
2022/01/25 09:02:53;;;;;;;28.00;12.53;;;5.60;57.00;;;;;;5074618;28;20448;-85
2022/01/25 09:05:20;;;;;;;28.93;12.17;;;5.30;57.40;;;;;;5073887;28;20471;-83
2022/01/25 09:07:47;;;;;;;24.40;10.33;;;5.00;58.10;;;;;;5055191;28;20640;-85
2022/01/25 09:10:14;;;;;;;23.00;10.43;;;5.10;58.70;;;;;;5071492;28;20479;-85
2022/01/25 09:12:43;;;;;;;19.17;8.80;;;5.30;58.40;;;;;;5076773;28;20569;-85
2022/01/25 09:15:10;;;;;;;19.30;10.20;;;5.20;58.30;;;;;;5055296;28;20484;-84
2022/01/25 09:17:37;;;;;;;21.27;10.30;;;5.20;58.50;;;;;;5075843;28;20543;-85
2022/01/25 09:20:05;;;;;;;20.47;10.57;;;5.50;58.00;;;;;;5071808;28;20567;-86
2022/01/25 09:22:32;;;;;;;23.33;10.83;;;5.70;57.60;;;;;;5073636;28;20487;-86
2022/01/25 09:24:59;;;;;;;31.87;11.33;;;5.90;57.00;;;;;;5073101;28;20479;-85
2022/01/25 09:27:26;;;;;;;18.63;8.80;;;6.00;56.80;;;;;;5072305;28;20546;-85
2022/01/25 09:29:54;;;;;;;21.97;11.03;;;5.90;56.70;;;;;;5070701;28;20570;-86
2022/01/25 09:32:21;;;;;;;22.20;9.50;;;5.80;57.10;;;;;;5072712;28;20896;-85
2022/01/25 09:34:49;;;;;;;19.83;10.17;;;5.70;57.10;;;;;;5055667;28;20570;-86
2022/01/25 09:37:17;;;;;;;27.30;10.17;;;5.60;57.60;;;;;;5076387;28;20522;-84
2022/01/25 09:39:44;;;;;;;24.40;12.37;;;5.70;57.30;;;;;;5072649;28;20782;-86
2022/01/25 09:42:11;;;;;;;24.53;11.40;;;5.60;57.50;;;;;;5070996;28;20463;-84
2022/01/25 09:44:40;;;;;;;26.23;12.50;;;5.50;57.60;;;;;;5074487;28;20479;-85
2022/01/25 09:47:10;;;;;;;22.03;11.40;;;5.70;57.30;;;;;;5072019;28;20491;-86
2022/01/25 09:49:38;;;;;;;24.93;12.00;;;6.00;57.30;;;;;;5072371;28;21005;-85
2022/01/25 09:52:08;;;;;;;26.00;11.30;;;6.00;57.20;;;;;;5069194;28;20455;-85
2022/01/25 09:54:36;;;;;;;24.50;11.27;;;6.10;57.30;;;;;;5053244;28;20563;-86
2022/01/25 09:57:04;;;;;;;25.43;11.33;;;6.10;56.90;;;;;;5072692;28;20920;-85
2022/01/25 09:59:32;;;;;;;24.83;10.63;;;6.20;57.20;;;;;;5069283;28;20492;-84
2022/01/25 10:02:00;;;;;;;33.17;14.33;;;6.10;57.00;;;;;;5053863;28;21215;-85
2022/01/25 10:04:34;;;;;;;27.30;12.03;;;6.20;56.90;;;;;;5075190;28;20578;-85
2022/01/25 10:07:03;;;;;;;41.27;12.40;;;6.10;56.90;;;;;;5054725;28;20521;-85
2022/01/25 10:09:31;;;;;;;27.10;12.97;;;6.20;57.50;;;;;;5075994;28;20923;-86
2022/01/25 10:11:58;;;;;;;31.07;14.90;;;6.40;57.20;;;;;;5060008;28;20487;-85
2022/01/25 10:14:28;;;;;;;30.80;13.50;;;6.30;57.10;;;;;;5040470;28;20533;-84
2022/01/25 10:16:56;;;;;;;38.47;15.00;;;6.40;57.20;;;;;;5074829;28;20474;-85
2022/01/25 10:19:26;;;;;;;26.57;11.43;;;6.40;57.40;;;;;;5074175;28;20547;-85
2022/01/25 10:22:00;;;;;;;32.90;13.63;;;6.40;57.80;;;;;;5059131;28;20480;-85
2022/01/25 10:24:31;;;;;;;32.83;16.73;;;6.50;57.80;;;;;;5072470;28;20488;-85
2022/01/25 10:27:00;;;;;;;33.07;17.90;;;6.50;56.80;;;;;;5071876;28;20459;-84
2022/01/25 10:29:30;;;;;;;29.13;14.77;;;6.50;57.10;;;;;;5069380;28;20452;-84
2022/01/25 10:31:59;;;;;;;29.60;12.70;;;6.60;57.20;;;;;;5071263;28;20460;-85
2022/01/25 10:34:28;;;;;;;31.87;13.83;;;6.80;56.80;;;;;;5072251;28;20472;-85
2022/01/25 10:36:59;;;;;;;25.00;11.93;;;7.00;56.50;;;;;;5076794;28;20447;-84
2022/01/25 10:39:29;;;;;;;30.03;12.40;;;6.90;56.00;;;;;;5074490;28;20463;-85
2022/01/25 10:42:03;;;;;;;26.57;12.90;;;7.00;56.40;;;;;;5072476;28;20468;-85
2022/01/25 10:44:46;;;;;;;31.57;14.87;;;7.20;56.00;;;;;;5073365;28;20567;-84
2022/01/25 10:47:13;;;;;;;28.30;13.37;;;6.90;56.00;;;;;;5070358;28;20496;-85
2022/01/25 10:49:44;;;;;;;31.03;15.33;;;6.80;56.30;;;;;;5071766;28;21219;-84
2022/01/25 10:52:12;;;;;;;37.27;16.83;;;6.60;56.80;;;;;;5075009;28;20546;-85
2022/01/25 10:54:41;;;;;;;27.53;12.87;;;6.80;57.00;;;;;;5073854;28;20468;-85
2022/01/25 10:57:17;;;;;;;31.60;14.20;;;6.90;57.00;;;;;;5074790;28;20467;-85
2022/01/25 10:59:58;;;;;;;37.60;16.97;;;7.00;57.00;;;;;;5054171;28;21342;-85
2022/01/25 11:02:25;;;;;;;35.67;15.57;;;7.10;56.60;;;;;;5072044;28;20466;-85
2022/01/25 11:05:04;;;;;;;37.83;14.87;;;7.20;56.30;;;;;;5053416;28;20948;-85
2022/01/25 11:07:39;;;;;;;35.67;14.83;;;7.10;56.40;;;;;;5056081;28;20475;-85
2022/01/25 11:10:07;;;;;;;36.90;16.63;;;7.00;56.50;;;;;;5053997;28;20558;-85
2022/01/25 11:12:38;;;;;;;31.90;15.13;;;6.90;57.00;;;;;;5072102;28;20452;-85
2022/01/25 11:15:06;;;;;;;31.90;16.30;;;6.80;57.40;;;;;;5069384;28;21364;-85
2022/01/25 11:17:34;;;;;;;25.70;14.70;;;6.80;57.30;;;;;;5069044;28;20555;-85
2022/01/25 11:20:03;;;;;;;32.13;14.83;;;6.70;57.60;;;;;;5057643;28;20964;-85
2022/01/25 11:22:30;;;;;;;35.20;18.70;;;7.00;57.60;;;;;;5075088;28;20600;-85
2022/01/25 11:25:01;;;;;;;28.77;15.53;;;7.20;57.10;;;;;;5074379;28;20476;-85
2022/01/25 11:27:30;;;;;;;29.00;13.87;;;7.10;56.70;;;;;;5076444;28;20452;-85
2022/01/25 11:30:00;;;;;;;32.47;14.97;;;6.80;57.50;;;;;;5075857;28;20527;-85
2022/01/25 11:32:32;;;;;;;35.57;14.43;;;6.80;58.20;;;;;;5074455;28;20542;-85
2022/01/25 11:35:00;;;;;;;24.37;13.90;;;6.90;57.70;;;;;;5076664;28;20574;-84
2022/01/25 11:37:34;;;;;;;30.83;16.07;;;7.10;57.70;;;;;;5078505;28;20463;-86
2022/01/25 11:40:04;;;;;;;34.97;14.70;;;7.40;57.30;;;;;;5073239;28;20543;-85
2022/01/25 11:42:36;;;;;;;40.60;19.20;;;7.50;56.60;;;;;;5075985;28;20462;-85
2022/01/25 11:45:06;;;;;;;43.33;20.13;;;7.60;56.60;;;;;;5073353;28;20468;-85
2022/01/25 11:47:36;;;;;;;35.80;15.73;;;7.50;56.40;;;;;;5074607;28;20517;-84
2022/01/25 11:50:07;;;;;;;33.87;17.83;;;7.40;57.00;;;;;;5074617;28;20555;-85
2022/01/25 11:52:34;;;;;;;43.97;16.53;;;7.60;56.80;;;;;;5070774;28;20981;-83
2022/01/25 11:55:22;;;;;;;38.33;15.97;;;7.70;56.20;;;;;;5072892;28;20979;-85
2022/01/25 11:57:53;;;;;;;34.30;16.53;;;7.90;56.40;;;;;;5072350;28;20474;-85
2022/01/25 12:00:22;;;;;;;27.20;14.00;;;8.00;56.30;;;;;;5069886;28;20540;-83
2022/01/25 12:02:51;;;;;;;27.33;14.20;;;8.10;56.00;;;;;;5071923;28;21205;-85
2022/01/25 12:05:27;;;;;;;28.80;12.43;;;8.00;55.90;;;;;;5072068;28;20465;-85
2022/01/25 12:08:07;;;;;;;29.27;13.73;;;7.90;56.30;;;;;;5072473;28;20464;-85
2022/01/25 12:10:39;;;;;;;34.83;13.87;;;7.50;57.50;;;;;;5069048;28;20469;-85
2022/01/25 12:13:13;;;;;;;32.70;17.10;;;7.70;57.10;;;;;;5075382;28;20463;-85
2022/01/25 12:15:41;;;;;;;55.13;21.40;;;7.80;56.70;;;;;;5074468;28;20958;-84
2022/01/25 12:18:10;;;;;;;45.67;17.60;;;8.00;56.70;;;;;;5072493;28;20461;-84
2022/01/25 12:20:48;;;;;;;48.43;21.93;;;8.10;56.50;;;;;;5073256;28;20467;-84
2022/01/25 12:23:19;;;;;;;75.50;25.50;;;8.20;56.20;;;;;;5072825;28;20538;-85
2022/01/25 12:25:52;;;;;;;57.37;25.60;;;8.20;55.70;;;;;;5060582;28;20500;-84
2022/01/25 12:28:24;;;;;;;34.10;17.80;;;8.20;55.80;;;;;;5050942;28;20451;-84
2022/01/25 12:30:51;;;;;;;28.40;13.70;;;8.40;55.80;;;;;;5070996;28;20472;-85
2022/01/25 12:33:23;;;;;;;30.17;14.93;;;8.40;55.40;;;;;;5071779;28;20963;-85
2022/01/25 12:35:54;;;;;;;30.53;14.00;;;8.30;55.20;;;;;;5068684;28;20580;-84
2022/01/25 12:38:24;;;;;;;30.50;15.37;;;8.30;55.50;;;;;;5073392;28;20459;-85
2022/01/25 12:40:58;;;;;;;31.50;16.60;;;8.20;55.60;;;;;;5072640;28;20461;-85
2022/01/25 12:43:30;;;;;;;27.57;14.90;;;8.10;55.80;;;;;;5072959;28;21112;-85
2022/01/25 12:46:01;;;;;;;31.90;14.87;;;8.00;56.20;;;;;;5069113;28;21292;-84
2022/01/25 12:48:31;;;;;;;27.07;13.30;;;7.70;56.20;;;;;;5071786;28;20468;-85
2022/01/25 12:51:02;;;;;;;30.10;13.87;;;7.50;56.50;;;;;;5070699;28;20483;-85
2022/01/25 12:53:32;;;;;;;30.57;11.90;;;7.60;57.10;;;;;;5071097;28;20471;-84
2022/01/25 12:56:05;;;;;;;20.90;12.37;;;7.80;56.90;;;;;;5073719;28;20463;-85
2022/01/25 12:58:33;;;;;;;26.37;13.57;;;8.00;56.60;;;;;;5071268;28;21492;-86
2022/01/25 13:01:05;;;;;;;27.63;13.20;;;7.90;56.20;;;;;;5074032;28;20452;-85
2022/01/25 13:03:33;;;;;;;24.07;12.40;;;7.90;56.30;;;;;;5070165;28;20483;-85
2022/01/25 13:06:08;;;;;;;25.67;14.80;;;8.00;56.20;;;;;;5070800;28;20545;-85
2022/01/25 13:08:41;;;;;;;24.80;13.30;;;8.10;55.90;;;;;;5074099;28;21176;-85
2022/01/25 13:11:28;;;;;;;23.27;10.90;;;8.10;55.70;;;;;;5073677;28;21012;-85
2022/01/25 13:14:14;;;;;;;37.50;14.80;;;8.00;56.00;;;;;;5070518;28;21023;-85
2022/01/25 13:16:45;;;;;;;23.43;12.13;;;8.00;56.10;;;;;;5073622;28;20455;-85
2022/01/25 13:19:13;;;;;;;27.53;11.90;;;7.80;56.40;;;;;;5073474;28;20452;-85
2022/01/25 13:21:44;;;;;;;26.10;12.67;;;7.80;56.50;;;;;;5072242;28;20451;-85
2022/01/25 13:24:13;;;;;;;29.53;12.33;;;7.70;57.30;;;;;;5073669;28;20482;-85
2022/01/25 13:26:56;;;;;;;35.83;13.73;;;7.70;57.20;;;;;;5072410;28;20623;-85
2022/01/25 13:32:17;;;;;;;28.57;13.20;;;7.90;56.80;;;;;;5074145;28;21008;-85
2022/01/25 13:34:44;;;;;;;24.13;12.37;;;7.80;56.60;;;;;;5076229;28;20985;-86
2022/01/25 13:37:21;;;;;;;25.20;13.53;;;7.90;56.90;;;;;;5072516;28;20456;-84
2022/01/25 13:39:59;;;;;;;34.23;14.10;;;8.00;56.60;;;;;;5071735;28;20551;-86
2022/01/25 13:42:38;;;;;;;29.50;13.07;;;8.10;56.50;;;;;;5072794;28;20842;-86
2022/01/25 13:48:05;;;;;;;31.00;13.93;;;8.20;56.20;;;;;;5070765;28;20462;-85
2022/01/25 13:50:34;;;;;;;33.57;13.87;;;8.10;55.70;;;;;;5074406;28;20467;-85
2022/01/25 13:53:02;;;;;;;28.80;12.80;;;7.50;57.50;;;;;;5071497;28;20539;-84
2022/01/25 13:55:29;;;;;;;27.53;13.00;;;7.50;57.90;;;;;;5069604;28;20452;-86
2022/01/25 13:57:58;;;;;;;26.97;12.93;;;7.40;58.10;;;;;;5072135;28;20461;-85
2022/01/25 14:00:28;;;;;;;34.40;16.10;;;7.60;58.00;;;;;;5070987;28;20456;-85
2022/01/25 14:02:56;;;;;;;28.97;15.27;;;7.70;57.50;;;;;;5069587;28;20464;-86
2022/01/25 14:05:24;;;;;;;38.37;16.83;;;7.60;57.70;;;;;;5071101;28;20972;-85
2022/01/25 14:07:52;;;;;;;34.10;16.00;;;7.70;57.90;;;;;;5069749;28;20811;-86
2022/01/25 14:10:24;;;;;;;25.67;11.63;;;8.00;57.40;;;;;;5069949;28;20863;-85